createdAt,value
2019-01-08T00:01:55.213Z,3.63
2019-01-08T00:04:23.382Z,3.57
2019-01-08T00:06:51.580Z,3.77
2019-01-08T00:09:19.713Z,3.40
2019-01-08T00:11:47.787Z,3.73
2019-01-08T00:14:16.067Z,3.77
2019-01-08T00:16:44.164Z,3.70
2019-01-08T00:19:12.271Z,3.63
2019-01-08T00:21:40.385Z,3.23
2019-01-08T00:24:08.526Z,3.40
2019-01-08T00:26:36.636Z,3.57
2019-01-08T00:29:04.762Z,3.60
2019-01-08T00:31:32.875Z,3.17
2019-01-08T00:34:00.979Z,3.60
2019-01-08T00:36:29.126Z,3.63
2019-01-08T00:38:57.220Z,3.73
2019-01-08T00:41:25.386Z,3.13
2019-01-08T00:43:53.527Z,3.77
2019-01-08T00:46:21.720Z,3.30
2019-01-08T00:48:52.838Z,3.70
2019-01-08T00:51:21.086Z,3.70
2019-01-08T00:53:49.125Z,3.67
2019-01-08T00:56:17.190Z,3.30
2019-01-08T00:58:51.495Z,3.53
2019-01-08T01:01:15.123Z,3.33
2019-01-08T01:03:43.302Z,3.30
2019-01-08T01:06:11.438Z,3.30
2019-01-08T01:08:39.578Z,3.30
2019-01-08T01:11:07.641Z,3.47
2019-01-08T01:13:35.823Z,3.30
2019-01-08T01:16:04.020Z,3.47
2019-01-08T01:18:32.141Z,3.30
2019-01-08T01:21:00.304Z,3.33
2019-01-08T01:23:28.482Z,3.40
2019-01-08T01:25:56.679Z,3.70
2019-01-08T01:28:25.011Z,3.50
2019-01-08T01:30:53.111Z,3.50
2019-01-08T01:33:21.223Z,3.20
2019-01-08T01:35:49.285Z,3.30
2019-01-08T01:38:17.404Z,3.20
2019-01-08T01:40:45.558Z,3.53
2019-01-08T01:43:13.783Z,3.30
2019-01-08T01:45:41.906Z,3.07
2019-01-08T01:48:10.036Z,3.50
2019-01-08T01:50:38.073Z,3.50
2019-01-08T01:53:06.254Z,3.50
2019-01-08T01:55:34.308Z,3.63
2019-01-08T01:58:02.425Z,3.77
2019-01-08T02:00:30.616Z,3.13
2019-01-08T02:02:58.709Z,3.53
2019-01-08T02:05:26.808Z,3.60
2019-01-08T02:07:55.015Z,3.20
2019-01-08T02:10:23.170Z,3.70
2019-01-08T02:12:51.346Z,3.50
2019-01-08T02:15:19.586Z,3.17
2019-01-08T02:17:47.718Z,3.30
2019-01-08T02:20:15.812Z,3.17
2019-01-08T02:22:43.945Z,3.10
2019-01-08T02:25:12.150Z,3.03
2019-01-08T02:27:40.238Z,3.20
2019-01-08T02:30:08.574Z,3.07
2019-01-08T02:32:36.675Z,3.30
2019-01-08T02:35:05.473Z,3.40
2019-01-08T02:37:33.555Z,2.90
2019-01-08T02:40:01.614Z,3.50
2019-01-08T02:42:29.689Z,3.47
2019-01-08T02:44:57.787Z,3.13
2019-01-08T02:47:25.977Z,3.27
2019-01-08T02:49:54.108Z,3.30
2019-01-08T02:52:22.203Z,3.10
2019-01-08T02:54:50.421Z,3.13
2019-01-08T02:57:18.653Z,3.30
2019-01-08T02:59:46.708Z,3.20
2019-01-08T03:02:14.785Z,3.40
2019-01-08T03:04:42.961Z,3.00
2019-01-08T03:07:11.213Z,3.30
2019-01-08T03:09:39.282Z,3.20
2019-01-08T03:12:07.521Z,3.30
2019-01-08T03:14:35.845Z,2.93
2019-01-08T03:17:03.969Z,3.00
2019-01-08T03:19:32.050Z,3.10
2019-01-08T03:22:00.172Z,2.90
2019-01-08T03:24:28.394Z,3.30
2019-01-08T03:26:56.599Z,2.97
2019-01-08T03:29:24.673Z,3.27
2019-01-08T03:31:52.801Z,2.97
2019-01-08T03:34:20.972Z,3.17
2019-01-08T03:36:49.067Z,3.13
2019-01-08T03:39:17.133Z,3.00
2019-01-08T03:41:45.281Z,3.17
2019-01-08T03:44:13.344Z,3.27
2019-01-08T03:46:41.413Z,2.87
2019-01-08T03:49:09.562Z,3.17
2019-01-08T03:51:37.674Z,3.57
2019-01-08T03:54:05.792Z,2.83
2019-01-08T03:56:33.981Z,3.20
2019-01-08T03:59:02.229Z,2.90
2019-01-08T04:01:30.386Z,3.00
2019-01-08T04:03:58.532Z,2.60
2019-01-08T04:06:26.665Z,2.90
2019-01-08T04:08:54.748Z,2.97
2019-01-08T04:11:22.896Z,2.67
2019-01-08T04:13:51.030Z,2.80
2019-01-08T04:16:19.074Z,2.70
2019-01-08T04:18:47.236Z,2.83
2019-01-08T04:21:15.287Z,2.77
2019-01-08T04:23:43.417Z,2.93
2019-01-08T04:26:11.464Z,3.03
2019-01-08T04:28:39.695Z,3.00
2019-01-08T04:31:07.870Z,2.60
2019-01-08T04:33:35.968Z,2.80
2019-01-08T04:36:04.089Z,2.70
2019-01-08T04:38:32.201Z,2.90
2019-01-08T04:41:00.331Z,2.60
2019-01-08T04:43:28.462Z,3.00
2019-01-08T04:45:56.736Z,2.70
2019-01-08T04:48:24.945Z,2.60
2019-01-08T04:50:53.145Z,3.10
2019-01-08T04:53:21.244Z,2.53
2019-01-08T04:55:49.313Z,2.87
2019-01-08T04:58:17.497Z,2.90
2019-01-08T05:00:45.731Z,3.03
2019-01-08T05:03:13.903Z,3.03
2019-01-08T05:05:42.049Z,2.80
2019-01-08T05:08:10.137Z,2.83
2019-01-08T05:10:38.189Z,2.50
2019-01-08T05:13:06.361Z,2.80
2019-01-08T05:15:34.500Z,2.90
2019-01-08T05:18:02.609Z,3.03
2019-01-08T05:20:30.776Z,2.93
2019-01-08T05:22:58.834Z,3.23
2019-01-08T05:25:26.963Z,3.20
2019-01-08T05:27:55.088Z,3.10
2019-01-08T05:30:23.163Z,2.70
2019-01-08T05:32:51.333Z,2.80
2019-01-08T05:35:32.367Z,2.90
2019-01-08T05:38:00.762Z,2.80
2019-01-08T05:40:28.827Z,2.97
2019-01-08T05:42:56.900Z,3.20
2019-01-08T05:45:25.019Z,2.97
2019-01-08T05:47:53.136Z,3.00
2019-01-08T05:50:21.194Z,2.90
2019-01-08T05:52:49.240Z,3.50
2019-01-08T05:55:18.321Z,3.27
2019-01-08T05:57:46.535Z,3.43
2019-01-08T06:00:16.577Z,3.80
2019-01-08T06:02:44.403Z,3.80
2019-01-08T06:05:12.516Z,4.43
2019-01-08T06:07:40.712Z,4.43
2019-01-08T06:10:09.581Z,4.83
2019-01-08T06:12:37.675Z,5.23
2019-01-08T06:15:05.765Z,4.73
2019-01-08T06:17:33.838Z,4.97
2019-01-08T06:20:02.030Z,4.60
2019-01-08T06:22:30.158Z,4.60
2019-01-08T06:24:58.213Z,4.63
2019-01-08T06:27:26.351Z,4.43
2019-01-08T06:29:54.496Z,4.50
2019-01-08T06:32:22.739Z,4.57
2019-01-08T06:34:50.849Z,4.50
2019-01-08T06:37:18.935Z,4.63
2019-01-08T06:39:47.052Z,4.60
2019-01-08T06:42:15.199Z,4.60
2019-01-08T06:44:43.266Z,6.10
2019-01-08T06:47:11.432Z,9.13
2019-01-08T06:49:39.775Z,8.90
2019-01-08T06:52:07.931Z,7.93
2019-01-08T06:54:35.997Z,8.40
2019-01-08T06:57:04.222Z,7.97
2019-01-08T06:59:32.334Z,7.40
2019-01-08T07:02:00.393Z,8.00
2019-01-08T07:04:28.667Z,7.90
2019-01-08T07:06:56.868Z,9.17
2019-01-08T07:09:24.941Z,8.57
2019-01-08T07:11:53.099Z,8.53
2019-01-08T07:14:21.213Z,7.77
2019-01-08T07:16:49.325Z,8.00
2019-01-08T07:19:17.477Z,8.27
2019-01-08T07:21:45.568Z,8.37
2019-01-08T07:24:13.651Z,8.40
2019-01-08T07:26:41.768Z,8.77
2019-01-08T07:29:09.935Z,8.77
2019-01-08T07:31:38.016Z,8.47
2019-01-08T07:34:06.083Z,8.83
2019-01-08T07:36:34.203Z,8.83
2019-01-08T07:39:02.314Z,8.67
2019-01-08T07:41:30.407Z,10.00
2019-01-08T07:43:58.514Z,8.77
2019-01-08T07:46:26.628Z,8.80
2019-01-08T07:48:54.801Z,8.43
2019-01-08T07:51:22.986Z,9.10
2019-01-08T07:53:51.042Z,8.27
2019-01-08T07:56:19.154Z,8.27
2019-01-08T07:58:47.383Z,8.20
2019-01-08T08:01:15.509Z,8.50
2019-01-08T08:03:43.611Z,8.70
2019-01-08T08:06:11.787Z,8.57
2019-01-08T08:08:39.889Z,8.07
2019-01-08T08:11:08.469Z,7.80
2019-01-08T08:13:36.505Z,8.03
2019-01-08T08:16:04.588Z,7.90
2019-01-08T08:18:32.894Z,7.83
2019-01-08T08:21:01.202Z,7.77
2019-01-08T08:23:29.360Z,7.43
2019-01-08T08:25:57.460Z,7.93
2019-01-08T08:28:25.605Z,7.40
2019-01-08T08:30:58.622Z,6.87
2019-01-08T08:33:23.572Z,7.70
2019-01-08T08:35:51.735Z,7.30
2019-01-08T08:38:19.901Z,7.20
2019-01-08T08:40:47.960Z,7.03
2019-01-08T08:43:16.236Z,6.93
2019-01-08T08:45:44.245Z,6.83
2019-01-08T08:48:12.358Z,6.77
2019-01-08T08:50:40.412Z,6.73
2019-01-08T08:53:08.488Z,6.93
2019-01-08T08:55:36.675Z,6.70
2019-01-08T08:58:04.855Z,6.53
2019-01-08T09:00:32.970Z,6.33
2019-01-08T09:03:01.123Z,6.70
2019-01-08T09:05:29.390Z,6.70
2019-01-08T09:07:57.520Z,6.27
2019-01-08T09:10:25.568Z,6.10
2019-01-08T09:12:53.711Z,6.37
2019-01-08T09:15:21.788Z,6.17
2019-01-08T09:17:50.077Z,6.30
2019-01-08T09:20:18.261Z,6.23
2019-01-08T09:22:46.333Z,6.43
2019-01-08T09:25:14.374Z,6.30
2019-01-08T09:27:42.424Z,5.77
2019-01-08T09:30:10.605Z,6.20
2019-01-08T09:32:38.674Z,6.10
2019-01-08T09:35:06.800Z,5.97
2019-01-08T09:37:34.965Z,6.33
2019-01-08T09:40:03.115Z,6.20
2019-01-08T09:42:31.235Z,5.60
2019-01-08T09:44:59.401Z,5.43
2019-01-08T09:47:27.534Z,6.13
2019-01-08T09:49:55.677Z,5.60
2019-01-08T09:52:23.831Z,5.80
2019-01-08T09:54:51.880Z,5.57
2019-01-08T09:57:19.964Z,5.97
2019-01-08T09:59:48.134Z,5.90
2019-01-08T10:02:16.275Z,5.77
2019-01-08T10:04:44.372Z,5.67
2019-01-08T10:07:12.477Z,5.70
2019-01-08T10:09:40.602Z,5.57
2019-01-08T10:12:08.669Z,5.70
2019-01-08T10:14:36.737Z,5.70
2019-01-08T10:17:04.836Z,5.50
2019-01-08T10:19:32.992Z,5.23
2019-01-08T10:22:01.345Z,5.57
2019-01-08T10:24:29.445Z,5.50
2019-01-08T10:26:57.575Z,5.30
2019-01-08T10:29:25.684Z,5.40
2019-01-08T10:31:53.779Z,5.60
2019-01-08T10:34:21.946Z,5.37
2019-01-08T10:36:50.048Z,5.73
2019-01-08T10:39:18.192Z,5.47
2019-01-08T10:41:46.358Z,5.17
2019-01-08T10:44:14.508Z,5.37
2019-01-08T10:46:42.656Z,5.20
2019-01-08T10:49:10.770Z,5.23
2019-01-08T10:51:38.886Z,5.10
2019-01-08T10:54:07.133Z,5.27
2019-01-08T10:56:35.177Z,5.50
2019-01-08T10:59:07.568Z,5.13
2019-01-08T11:01:40.283Z,5.10
2019-01-08T11:04:02.777Z,5.03
2019-01-08T11:06:30.925Z,5.17
2019-01-08T11:08:59.038Z,5.20
2019-01-08T11:11:27.098Z,5.20
2019-01-08T11:13:55.225Z,5.43
2019-01-08T11:16:23.347Z,4.87
2019-01-08T11:18:51.437Z,4.60
2019-01-08T11:21:19.563Z,5.30
2019-01-08T11:23:47.606Z,4.77
2019-01-08T11:26:15.734Z,4.73
2019-01-08T11:28:43.796Z,5.30
2019-01-08T11:31:11.925Z,5.30
2019-01-08T11:33:40.054Z,5.13
2019-01-08T11:36:08.212Z,5.33
2019-01-08T11:38:36.269Z,5.30
2019-01-08T11:41:04.394Z,5.03
2019-01-08T11:43:32.525Z,5.50
2019-01-08T11:46:00.600Z,4.80
2019-01-08T11:48:28.711Z,5.07
2019-01-08T11:50:56.827Z,4.90
2019-01-08T11:53:24.932Z,4.60
2019-01-08T11:55:52.997Z,4.80
2019-01-08T11:58:21.118Z,4.80
2019-01-08T12:00:49.177Z,5.30
2019-01-08T12:03:17.322Z,5.20
2019-01-08T12:05:45.413Z,4.77
2019-01-08T12:08:13.472Z,5.20
2019-01-08T12:10:41.591Z,4.87
2019-01-08T12:13:09.650Z,4.87
2019-01-08T12:15:37.745Z,5.20
2019-01-08T12:18:06.017Z,5.13
2019-01-08T12:20:34.275Z,4.40
2019-01-08T12:23:02.333Z,4.30
2019-01-08T12:25:30.498Z,4.90
2019-01-08T12:27:58.559Z,4.93
2019-01-08T12:30:26.671Z,4.97
2019-01-08T12:32:54.786Z,4.80
2019-01-08T12:35:22.841Z,5.10
2019-01-08T12:37:50.905Z,4.40
2019-01-08T12:40:19.032Z,4.50
2019-01-08T12:42:47.158Z,5.00
2019-01-08T12:45:15.209Z,4.80
2019-01-08T12:47:43.323Z,4.83
2019-01-08T12:50:11.425Z,4.27
2019-01-08T12:52:39.502Z,5.03
2019-01-08T12:55:07.675Z,4.37
2019-01-08T12:57:35.917Z,4.60
2019-01-08T13:00:04.274Z,4.90
2019-01-08T13:02:32.391Z,4.40
2019-01-08T13:05:00.489Z,5.13
2019-01-08T13:07:28.557Z,4.70
2019-01-08T13:09:56.687Z,4.40
2019-01-08T13:12:24.779Z,4.47
2019-01-08T13:14:52.992Z,4.70
2019-01-08T13:17:21.105Z,4.47
2019-01-08T13:19:49.219Z,4.50
2019-01-08T13:22:17.318Z,4.40
2019-01-08T13:24:45.466Z,4.60
2019-01-08T13:27:13.532Z,4.43
2019-01-08T13:29:41.619Z,4.27
2019-01-08T13:32:10.140Z,4.77
2019-01-08T13:34:38.218Z,4.07
2019-01-08T13:37:06.411Z,4.43
2019-01-08T13:39:34.700Z,4.57
2019-01-08T13:42:02.818Z,4.50
2019-01-08T13:44:31.018Z,4.07
2019-01-08T13:46:59.118Z,4.37
2019-01-08T13:49:27.242Z,4.40
2019-01-08T13:51:55.365Z,4.13
2019-01-08T13:54:23.611Z,3.80
2019-01-08T13:56:52.168Z,4.33
2019-01-08T13:59:20.236Z,4.67
2019-01-08T14:01:48.283Z,4.53
2019-01-08T14:04:16.371Z,4.50
2019-01-08T14:06:44.529Z,4.30
2019-01-08T14:09:12.662Z,4.10
2019-01-08T14:11:40.707Z,4.27
2019-01-08T14:14:08.882Z,4.33
2019-01-08T14:16:37.033Z,3.80
2019-01-08T14:19:05.085Z,4.30
2019-01-08T14:21:33.219Z,4.50
2019-01-08T14:24:03.445Z,4.03
2019-01-08T14:26:31.411Z,4.40
2019-01-08T14:28:59.589Z,4.50
2019-01-08T14:31:27.822Z,3.90
2019-01-08T14:33:56.044Z,4.40
2019-01-08T14:36:24.166Z,4.30
2019-01-08T14:38:52.223Z,4.50
2019-01-08T14:41:20.675Z,4.27
2019-01-08T14:43:48.848Z,4.30
2019-01-08T14:46:16.904Z,4.07
2019-01-08T14:48:45.352Z,4.53
2019-01-08T14:51:13.444Z,4.00
2019-01-08T14:53:41.725Z,4.30
2019-01-08T14:56:09.855Z,3.90
2019-01-08T14:58:38.068Z,4.00
2019-01-08T15:01:06.257Z,4.00
2019-01-08T15:03:34.447Z,4.67
2019-01-08T15:06:02.572Z,4.20
2019-01-08T15:08:30.743Z,3.93
2019-01-08T15:10:58.800Z,4.07
2019-01-08T15:13:26.934Z,4.40
2019-01-08T15:15:55.068Z,4.03
2019-01-08T15:18:23.176Z,3.93
2019-01-08T15:20:51.404Z,4.30
2019-01-08T15:23:19.619Z,4.10
2019-01-08T15:25:47.847Z,4.13
2019-01-08T15:28:15.925Z,3.93
2019-01-08T15:30:44.153Z,3.93
2019-01-08T15:33:12.221Z,3.70
2019-01-08T15:35:40.388Z,4.73
2019-01-08T15:38:08.503Z,4.27
2019-01-08T15:40:36.632Z,4.03
2019-01-08T15:43:04.780Z,4.30
2019-01-08T15:45:32.898Z,4.40
2019-01-08T15:48:01.024Z,4.37
2019-01-08T15:50:29.263Z,4.30
2019-01-08T15:52:57.364Z,4.50
2019-01-08T15:55:25.494Z,4.67
2019-01-08T15:57:53.601Z,4.47
2019-01-08T16:00:21.673Z,4.70
2019-01-08T16:02:49.785Z,4.47
2019-01-08T16:05:17.882Z,4.27
2019-01-08T16:07:45.984Z,4.57
2019-01-08T16:10:14.962Z,4.90
2019-01-08T16:12:43.041Z,6.50
2019-01-08T16:15:11.219Z,7.03
2019-01-08T16:17:39.293Z,6.53
2019-01-08T16:20:07.833Z,5.73
2019-01-08T16:22:35.965Z,5.80
2019-01-08T16:25:04.091Z,6.27
2019-01-08T16:27:32.203Z,5.60
2019-01-08T16:30:00.339Z,5.27
2019-01-08T16:32:28.415Z,5.57
2019-01-08T16:34:56.497Z,5.13
2019-01-08T16:37:24.989Z,5.63
2019-01-08T16:39:53.120Z,6.30
2019-01-08T16:42:22.646Z,7.77
2019-01-08T16:44:50.932Z,6.87
2019-01-08T16:47:19.250Z,6.37
2019-01-08T16:49:47.344Z,5.57
2019-01-08T16:52:15.497Z,7.60
2019-01-08T16:54:43.638Z,45.70
2019-01-08T16:57:11.771Z,84.33
2019-01-08T16:59:39.912Z,97.17
2019-01-08T17:02:08.013Z,88.47
2019-01-08T17:04:36.161Z,97.20
2019-01-08T17:07:04.255Z,129.33
2019-01-08T17:09:32.403Z,131.30
2019-01-08T17:12:00.488Z,120.97
2019-01-08T17:14:28.653Z,174.30
2019-01-08T17:16:56.771Z,161.10
2019-01-08T17:19:24.983Z,164.80
2019-01-08T17:21:53.179Z,197.40
2019-01-08T17:24:21.383Z,168.17
2019-01-08T17:26:49.452Z,146.07
2019-01-08T17:29:17.665Z,142.57
2019-01-08T17:31:45.849Z,159.40
2019-01-08T17:34:14.007Z,169.40
2019-01-08T17:36:42.159Z,165.73
2019-01-08T17:39:10.258Z,192.87
2019-01-08T17:41:38.431Z,207.60
2019-01-08T17:44:06.542Z,171.17
2019-01-08T17:46:34.818Z,158.10
2019-01-08T17:49:02.917Z,150.00
2019-01-08T17:51:31.075Z,144.40
2019-01-08T17:53:59.217Z,140.37
2019-01-08T17:56:27.292Z,137.80
2019-01-08T17:59:07.532Z,131.13
2019-01-08T18:01:37.492Z,130.10
2019-01-08T18:04:05.557Z,125.53
2019-01-08T18:06:33.838Z,118.67
2019-01-08T18:09:02.000Z,114.93
2019-01-08T18:11:30.163Z,109.13
2019-01-08T18:13:58.241Z,107.73
2019-01-08T18:16:26.325Z,106.63
2019-01-08T18:18:54.545Z,101.67
2019-01-08T18:21:22.633Z,98.50
2019-01-08T18:23:50.762Z,95.47
2019-01-08T18:26:18.942Z,96.30
2019-01-08T18:28:47.166Z,92.83
2019-01-08T18:31:15.300Z,87.60
2019-01-08T18:33:51.119Z,88.27
2019-01-08T18:36:13.970Z,85.73
2019-01-08T18:38:42.053Z,83.53
2019-01-08T18:41:10.302Z,78.60
2019-01-08T18:43:38.424Z,78.07
2019-01-08T18:46:06.571Z,76.53
2019-01-08T18:48:34.858Z,74.40
2019-01-08T18:51:02.982Z,74.53
2019-01-08T18:53:31.070Z,70.33
2019-01-08T18:55:59.203Z,70.40
2019-01-08T18:58:27.329Z,64.00
2019-01-08T19:00:55.576Z,62.53
2019-01-08T19:03:23.676Z,61.37
2019-01-08T19:05:52.255Z,60.90
2019-01-08T19:08:20.384Z,60.20
2019-01-08T19:10:48.496Z,58.63
2019-01-08T19:13:16.933Z,58.87
2019-01-08T19:15:45.075Z,57.30
2019-01-08T19:18:13.166Z,56.90
2019-01-08T19:20:41.381Z,53.30
2019-01-08T19:23:09.590Z,54.67
2019-01-08T19:25:37.712Z,51.50
2019-01-08T19:28:05.785Z,52.60
2019-01-08T19:30:33.903Z,51.00
2019-01-08T19:33:02.025Z,50.23
2019-01-08T19:35:31.854Z,49.63
2019-01-08T19:37:59.907Z,47.10
2019-01-08T19:40:27.982Z,42.73
2019-01-08T19:42:56.106Z,43.60
2019-01-08T19:45:24.191Z,44.07
2019-01-08T19:47:52.344Z,40.87
2019-01-08T19:50:20.437Z,42.00
2019-01-08T19:52:48.684Z,39.43
2019-01-08T19:55:16.929Z,40.47
2019-01-08T19:57:45.119Z,39.33
2019-01-08T20:00:13.549Z,37.23
2019-01-08T20:02:41.740Z,36.93
2019-01-08T20:05:10.003Z,37.33
2019-01-08T20:07:38.153Z,37.57
2019-01-08T20:10:06.251Z,36.93
2019-01-08T20:12:34.466Z,36.23
2019-01-08T20:15:02.617Z,34.80
2019-01-08T20:17:31.044Z,35.80
2019-01-08T20:19:59.310Z,33.30
2019-01-08T20:22:27.435Z,32.77
2019-01-08T20:24:55.594Z,31.87
2019-01-08T20:27:23.661Z,32.67
2019-01-08T20:29:51.805Z,31.37
2019-01-08T20:32:19.905Z,30.40
2019-01-08T20:34:48.705Z,31.87
2019-01-08T20:37:16.908Z,29.50
2019-01-08T20:39:45.058Z,29.27
2019-01-08T20:42:13.206Z,28.90
2019-01-08T20:44:41.293Z,28.87
2019-01-08T20:47:09.451Z,27.47
2019-01-08T20:49:37.658Z,27.90
2019-01-08T20:52:05.778Z,27.03
2019-01-08T20:54:33.866Z,26.37
2019-01-08T20:57:08.984Z,26.70
2019-01-08T20:59:31.828Z,25.67
2019-01-08T21:01:59.984Z,26.30
2019-01-08T21:04:35.267Z,25.13
2019-01-08T21:06:57.824Z,24.67
2019-01-08T21:09:25.950Z,24.73
2019-01-08T21:11:54.310Z,24.27
2019-01-08T21:14:22.407Z,24.20
2019-01-08T21:16:50.488Z,22.60
2019-01-08T21:19:18.579Z,21.50
2019-01-08T21:21:48.765Z,22.73
2019-01-08T21:24:16.466Z,22.10
2019-01-08T21:26:44.576Z,21.83
2019-01-08T21:29:12.748Z,22.33
2019-01-08T21:31:40.848Z,20.40
2019-01-08T21:34:09.860Z,19.83
2019-01-08T21:36:38.170Z,19.97
2019-01-08T21:39:06.776Z,19.33
2019-01-08T21:41:34.888Z,19.33
2019-01-08T21:44:03.002Z,19.30
2019-01-08T21:46:31.118Z,18.90
2019-01-08T21:48:59.290Z,17.97
2019-01-08T21:51:27.440Z,17.30
2019-01-08T21:53:55.575Z,18.00
2019-01-08T21:56:23.738Z,17.40
2019-01-08T21:58:51.871Z,17.60
2019-01-08T22:01:19.945Z,17.17
2019-01-08T22:03:48.115Z,17.57
2019-01-08T22:06:16.290Z,16.97
2019-01-08T22:08:44.392Z,17.23
2019-01-08T22:11:12.489Z,16.20
2019-01-08T22:13:40.607Z,15.83
2019-01-08T22:16:08.819Z,15.50
2019-01-08T22:18:37.839Z,15.07
2019-01-08T22:21:05.964Z,16.03
2019-01-08T22:23:34.075Z,14.27
2019-01-08T22:26:02.212Z,15.03
2019-01-08T22:28:30.342Z,14.83
2019-01-08T22:30:58.417Z,14.00
2019-01-08T22:33:26.521Z,14.00
2019-01-08T22:35:54.591Z,13.90
2019-01-08T22:38:22.686Z,14.17
2019-01-08T22:40:50.824Z,13.67
2019-01-08T22:43:18.980Z,14.03
2019-01-08T22:45:47.088Z,13.27
2019-01-08T22:48:15.199Z,12.30
2019-01-08T22:50:43.320Z,13.70
2019-01-08T22:53:11.463Z,12.83
2019-01-08T22:55:39.580Z,12.73
2019-01-08T22:58:07.931Z,13.03
2019-01-08T23:00:48.214Z,12.27
2019-01-08T23:03:16.396Z,12.63
2019-01-08T23:05:44.501Z,12.67
2019-01-08T23:08:12.658Z,12.03
2019-01-08T23:10:40.729Z,11.97
2019-01-08T23:13:09.272Z,12.27
2019-01-08T23:15:37.358Z,11.80
2019-01-08T23:18:05.486Z,12.10
2019-01-08T23:20:33.549Z,11.67
2019-01-08T23:23:01.762Z,11.07
2019-01-08T23:25:29.918Z,11.07
2019-01-08T23:27:58.057Z,10.93
2019-01-08T23:30:26.218Z,12.13
2019-01-08T23:32:54.380Z,10.73
2019-01-08T23:35:23.504Z,11.00
2019-01-08T23:37:51.678Z,10.90
2019-01-08T23:40:19.814Z,10.87
2019-01-08T23:42:47.958Z,11.10
2019-01-08T23:45:16.136Z,10.67
2019-01-08T23:47:44.210Z,10.53
2019-01-08T23:50:12.343Z,10.70
2019-01-08T23:52:44.021Z,9.87
2019-01-08T23:55:12.109Z,10.57
2019-01-08T23:57:40.258Z,9.90
